Time;durP1;ratioP1;P1;durP2;ratioP2;P2;SDS_P1;SDS_P2;PMS_P1;PMS_P2;Temp;Humidity;BMP_temperature;BMP_pressure;BME280_temperature;BME280_humidity;BME280_pressure;Samples;Min_cycle;Max_cycle;Signal;HPM_P1;HPM_P2
2023/05/04 00:00:29;;;;;;;13.43;10.83;;;;;;;;;;5021112;28;20426;-83
2023/05/04 00:02:55;;;;;;;11.50;10.33;;;;;;;;;;5011958;28;20416;-83
2023/05/04 00:05:22;;;;;;;11.90;10.70;;;;;;;;;;5015633;28;20425;-83
2023/05/04 00:07:48;;;;;;;11.90;10.63;;;;;;;;;;5028672;28;20417;-83
2023/05/04 00:10:14;;;;;;;11.93;10.73;;;;;;;;;;5020820;28;20501;-83
2023/05/04 00:12:41;;;;;;;11.63;10.50;;;;;;;;;;5025311;28;20512;-83
2023/05/04 00:15:07;;;;;;;12.00;10.77;;;;;;;;;;5019720;28;20451;-83
2023/05/04 00:17:33;;;;;;;13.07;10.55;;;;;;;;;;5031242;28;20413;-83
2023/05/04 00:20:00;;;;;;;13.53;10.87;;;;;;;;;;5011514;28;20510;-83
2023/05/04 00:22:26;;;;;;;12.10;10.90;;;;;;;;;;5013769;28;20433;-83
2023/05/04 00:24:52;;;;;;;12.03;10.83;;;;;;;;;;5020647;28;20432;-83
2023/05/04 00:27:18;;;;;;;13.20;10.90;;;;;;;;;;5030419;28;20409;-83
2023/05/04 00:29:44;;;;;;;13.33;10.77;;;;;;;;;;5031796;28;20449;-82
2023/05/04 00:32:10;;;;;;;13.23;10.87;;;;;;;;;;5014815;28;20526;-82
2023/05/04 00:34:36;;;;;;;12.65;10.98;;;;;;;;;;5036485;28;20446;-83
2023/05/04 00:37:02;;;;;;;12.15;10.90;;;;;;;;;;5002015;28;20437;-83
2023/05/04 00:39:28;;;;;;;11.77;10.45;;;;;;;;;;5018327;28;20393;-83
2023/05/04 00:41:55;;;;;;;12.55;10.88;;;;;;;;;;5035282;28;20412;-83
2023/05/04 00:44:22;;;;;;;11.68;10.43;;;;;;;;;;5021489;28;20419;-83
2023/05/04 00:46:49;;;;;;;11.80;10.70;;;;;;;;;;5037375;28;20419;-82
2023/05/04 00:49:15;;;;;;;13.55;10.85;;;;;;;;;;5037255;28;20455;-84
2023/05/04 00:51:41;;;;;;;11.40;10.30;;;;;;;;;;5009975;28;20420;-84
2023/05/04 00:54:07;;;;;;;12.75;10.88;;;;;;;;;;5037655;28;20496;-84
2023/05/04 00:56:39;;;;;;;12.57;10.73;;;;;;;;;;5037015;28;20469;-84
2023/05/04 00:59:06;;;;;;;11.57;10.43;;;;;;;;;;5038455;28;20457;-84
2023/05/04 01:01:32;;;;;;;11.63;10.40;;;;;;;;;;5015350;28;20417;-84
2023/05/04 01:03:58;;;;;;;11.88;10.15;;;;;;;;;;5017904;28;20453;-84
2023/05/04 01:06:25;;;;;;;12.17;10.97;;;;;;;;;;5018300;28;20417;-84
2023/05/04 01:09:10;;;;;;;11.90;10.70;;;;;;;;;;5020671;28;20408;-84
2023/05/04 01:11:44;;;;;;;12.77;10.83;;;;;;;;;;5037287;28;20829;-84
2023/05/04 01:14:13;;;;;;;12.00;10.68;;;;;;;;;;5037106;28;20440;-84
2023/05/04 01:16:39;;;;;;;12.02;10.70;;;;;;;;;;5037182;28;20447;-84
2023/05/04 01:19:05;;;;;;;12.73;10.63;;;;;;;;;;5038058;28;20431;-84
2023/05/04 01:21:31;;;;;;;11.68;10.32;;;;;;;;;;5037565;28;20428;-83
2023/05/04 01:23:58;;;;;;;11.67;10.47;;;;;;;;;;5020813;28;20420;-83
2023/05/04 01:26:26;;;;;;;11.80;10.60;;;;;;;;;;5036946;28;20408;-83
2023/05/04 01:29:00;;;;;;;12.43;10.95;;;;;;;;;;5036650;28;20506;-84
2023/05/04 01:31:26;;;;;;;11.60;10.40;;;;;;;;;;5036706;28;20507;-84
2023/05/04 01:33:53;;;;;;;12.88;11.05;;;;;;;;;;5020412;28;20475;-84
2023/05/04 01:36:20;;;;;;;12.05;10.73;;;;;;;;;;5036830;28;20440;-84
2023/05/04 01:38:53;;;;;;;11.82;10.68;;;;;;;;;;5036615;28;20416;-84
2023/05/04 01:41:20;;;;;;;12.48;10.70;;;;;;;;;;5032008;28;20514;-84
2023/05/04 01:43:46;;;;;;;11.70;10.60;;;;;;;;;;5020598;28;20462;-84
2023/05/04 01:46:12;;;;;;;12.15;10.95;;;;;;;;;;5036698;28;20415;-84
2023/05/04 01:48:38;;;;;;;12.63;10.70;;;;;;;;;;5019805;28;20427;-83
2023/05/04 01:51:04;;;;;;;11.88;10.68;;;;;;;;;;5036607;28;20404;-84
2023/05/04 01:53:30;;;;;;;12.30;10.95;;;;;;;;;;5036069;28;20458;-83
2023/05/04 01:55:56;;;;;;;11.70;10.50;;;;;;;;;;5036523;28;20427;-84
2023/05/04 01:58:22;;;;;;;11.63;10.43;;;;;;;;;;5020221;28;20400;-84
2023/05/04 02:00:48;;;;;;;12.15;10.95;;;;;;;;;;5036838;28;20408;-84
2023/05/04 02:03:14;;;;;;;13.60;10.83;;;;;;;;;;5036867;28;20412;-84
2023/05/04 02:05:40;;;;;;;11.93;10.60;;;;;;;;;;5020444;28;20434;-84
2023/05/04 02:08:06;;;;;;;12.00;10.43;;;;;;;;;;5019750;28;20438;-84
2023/05/04 02:10:33;;;;;;;13.00;11.05;;;;;;;;;;5020141;28;20473;-84
2023/05/04 02:13:00;;;;;;;12.18;10.88;;;;;;;;;;5016071;28;20437;-83
2023/05/04 02:15:26;;;;;;;12.57;11.05;;;;;;;;;;5016752;28;20405;-85
2023/05/04 02:17:52;;;;;;;12.40;10.85;;;;;;;;;;5017259;28;20412;-85
2023/05/04 02:20:18;;;;;;;11.80;10.60;;;;;;;;;;5017048;28;20398;-85
2023/05/04 02:22:47;;;;;;;12.77;10.98;;;;;;;;;;5017156;28;20416;-85
2023/05/04 02:25:13;;;;;;;13.10;10.93;;;;;;;;;;5016711;28;20419;-85
2023/05/04 02:27:39;;;;;;;12.30;11.07;;;;;;;;;;5023600;28;20416;-85
2023/05/04 02:30:05;;;;;;;11.90;10.70;;;;;;;;;;5019425;28;20443;-85
2023/05/04 02:32:32;;;;;;;12.20;11.03;;;;;;;;;;5018951;28;20415;-85
2023/05/04 02:34:58;;;;;;;12.00;10.70;;;;;;;;;;5019058;28;20584;-85
2023/05/04 02:37:24;;;;;;;12.23;11.07;;;;;;;;;;5017638;28;20433;-85
2023/05/04 02:39:50;;;;;;;13.85;11.23;;;;;;;;;;5035431;28;20415;-85
2023/05/04 02:42:18;;;;;;;12.38;11.10;;;;;;;;;;5018670;28;20413;-85
2023/05/04 02:44:44;;;;;;;12.40;11.07;;;;;;;;;;5035034;28;20424;-86
2023/05/04 02:47:10;;;;;;;12.57;11.20;;;;;;;;;;5018523;28;20423;-85
2023/05/04 02:49:36;;;;;;;13.40;10.80;;;;;;;;;;5018926;28;20434;-85
2023/05/04 02:52:03;;;;;;;11.75;10.55;;;;;;;;;;5014769;28;20430;-85
2023/05/04 02:54:29;;;;;;;12.00;10.80;;;;;;;;;;5034587;28;20427;-85
2023/05/04 02:56:55;;;;;;;12.80;11.50;;;;;;;;;;5035779;28;20443;-85
2023/05/04 02:59:21;;;;;;;11.52;10.52;;;;;;;;;;5019352;28;20442;-85
2023/05/04 03:01:49;;;;;;;12.93;11.63;;;;;;;;;;5017145;28;20480;-86
2023/05/04 03:04:15;;;;;;;15.52;11.20;;;;;;;;;;5013284;28;20417;-85
2023/05/04 03:06:41;;;;;;;12.27;11.00;;;;;;;;;;5015969;28;20421;-85
2023/05/04 03:09:08;;;;;;;13.00;10.85;;;;;;;;;;5019547;28;20423;-85
2023/05/04 03:11:34;;;;;;;12.38;11.10;;;;;;;;;;5019209;28;20434;-85
2023/05/04 03:14:00;;;;;;;12.73;11.43;;;;;;;;;;5010576;28;20456;-85
2023/05/04 03:16:26;;;;;;;12.45;11.15;;;;;;;;;;5016480;28;20414;-85
2023/05/04 03:18:52;;;;;;;12.95;11.57;;;;;;;;;;5018246;28;20408;-85
2023/05/04 03:21:18;;;;;;;12.48;11.18;;;;;;;;;;4999808;28;20492;-84
2023/05/04 03:23:44;;;;;;;12.93;11.43;;;;;;;;;;5033780;28;20416;-84
2023/05/04 03:26:11;;;;;;;12.68;11.45;;;;;;;;;;5035091;28;20419;-84
2023/05/04 03:28:37;;;;;;;13.05;11.25;;;;;;;;;;5017281;28;20431;-84
2023/05/04 03:31:03;;;;;;;12.70;11.40;;;;;;;;;;5034663;28;20416;-84
2023/05/04 03:33:29;;;;;;;14.02;11.68;;;;;;;;;;5013211;28;20464;-84
2023/05/04 03:35:55;;;;;;;12.45;11.10;;;;;;;;;;5023844;28;20442;-84
2023/05/04 03:38:21;;;;;;;14.73;11.82;;;;;;;;;;5014208;28;20412;-84
2023/05/04 03:40:47;;;;;;;13.18;11.55;;;;;;;;;;5034812;28;20411;-83
2023/05/04 03:43:13;;;;;;;12.93;11.63;;;;;;;;;;5015611;28;20414;-84
2023/05/04 03:45:39;;;;;;;13.10;11.15;;;;;;;;;;5035077;28;20408;-84
2023/05/04 03:48:05;;;;;;;12.80;11.52;;;;;;;;;;5034546;28;20411;-84
2023/05/04 03:50:31;;;;;;;13.50;11.70;;;;;;;;;;5018539;28;20428;-84
2023/05/04 03:52:57;;;;;;;12.95;11.57;;;;;;;;;;5034306;28;20415;-84
2023/05/04 03:55:23;;;;;;;13.85;12.35;;;;;;;;;;5031567;28;20426;-84
2023/05/04 03:57:49;;;;;;;13.57;11.93;;;;;;;;;;5034380;28;20419;-84
2023/05/04 04:00:16;;;;;;;14.00;12.00;;;;;;;;;;5018365;28;20400;-84
2023/05/04 04:02:42;;;;;;;13.02;11.70;;;;;;;;;;5014814;28;20431;-84
2023/05/04 04:05:11;;;;;;;13.40;11.95;;;;;;;;;;5015352;28;20422;-84
2023/05/04 04:07:37;;;;;;;13.13;11.82;;;;;;;;;;5027772;28;20480;-84
2023/05/04 04:10:03;;;;;;;13.60;11.85;;;;;;;;;;5037795;28;20498;-84
2023/05/04 04:12:29;;;;;;;13.32;12.02;;;;;;;;;;5018424;28;20504;-84
2023/05/04 04:14:55;;;;;;;13.18;11.82;;;;;;;;;;5003624;28;20440;-84
2023/05/04 04:17:21;;;;;;;14.48;12.90;;;;;;;;;;5020394;28;20419;-84
2023/05/04 04:19:47;;;;;;;13.37;11.80;;;;;;;;;;5022549;28;20417;-84
2023/05/04 04:22:13;;;;;;;13.75;12.45;;;;;;;;;;5024113;28;20448;-84
2023/05/04 04:24:39;;;;;;;14.20;12.30;;;;;;;;;;5018726;28;20413;-83
2023/05/04 04:27:05;;;;;;;14.18;12.63;;;;;;;;;;5024351;28;20415;-83
2023/05/04 04:29:34;;;;;;;14.38;12.88;;;;;;;;;;5038138;28;20459;-83
2023/05/04 04:32:00;;;;;;;15.18;12.38;;;;;;;;;;5035738;28;20423;-83
2023/05/04 04:34:26;;;;;;;14.30;12.77;;;;;;;;;;5035337;28;20539;-84
2023/05/04 04:36:52;;;;;;;14.68;13.07;;;;;;;;;;5018693;28;20464;-84
2023/05/04 04:39:18;;;;;;;13.45;12.02;;;;;;;;;;5035196;28;20420;-84
2023/05/04 04:41:44;;;;;;;13.60;12.18;;;;;;;;;;5009829;28;20450;-83
2023/05/04 04:44:10;;;;;;;14.20;12.68;;;;;;;;;;5017921;28;20428;-84
2023/05/04 04:46:36;;;;;;;14.60;12.63;;;;;;;;;;5035036;28;20424;-84
2023/05/04 04:49:02;;;;;;;14.57;12.50;;;;;;;;;;5034801;28;20478;-84
2023/05/04 04:51:28;;;;;;;14.20;12.70;;;;;;;;;;5034626;28;20412;-84
2023/05/04 04:53:54;;;;;;;14.07;12.57;;;;;;;;;;5018513;28;20432;-84
2023/05/04 04:56:20;;;;;;;14.32;12.57;;;;;;;;;;5017923;28;20417;-84
2023/05/04 04:58:47;;;;;;;14.43;13.02;;;;;;;;;;5034812;28;20415;-84
2023/05/04 05:01:17;;;;;;;13.80;12.40;;;;;;;;;;5015230;28;20416;-84
2023/05/04 05:03:44;;;;;;;14.18;12.65;;;;;;;;;;5037091;28;20433;-83
2023/05/04 05:06:10;;;;;;;14.13;12.73;;;;;;;;;;5020735;28;20427;-84
2023/05/04 05:08:37;;;;;;;15.48;13.05;;;;;;;;;;5020795;28;20511;-84
2023/05/04 05:11:03;;;;;;;14.40;12.93;;;;;;;;;;5021245;28;20506;-84
2023/05/04 05:13:32;;;;;;;14.10;12.70;;;;;;;;;;5037273;28;20454;-84
2023/05/04 05:15:58;;;;;;;14.95;12.18;;;;;;;;;;5020414;28;20498;-83
2023/05/04 05:18:25;;;;;;;13.73;12.40;;;;;;;;;;5021070;28;20407;-84
2023/05/04 05:20:51;;;;;;;13.50;12.17;;;;;;;;;;5020874;28;20458;-83
2023/05/04 05:23:17;;;;;;;13.70;11.73;;;;;;;;;;5036872;28;20416;-84
2023/05/04 05:25:44;;;;;;;12.82;11.63;;;;;;;;;;5016999;28;20445;-83
2023/05/04 05:28:10;;;;;;;13.18;11.60;;;;;;;;;;5017303;28;20416;-84
2023/05/04 05:30:36;;;;;;;13.30;11.90;;;;;;;;;;5036355;28;20423;-84
2023/05/04 05:33:02;;;;;;;13.77;12.38;;;;;;;;;;5036851;28;20499;-84
2023/05/04 05:35:28;;;;;;;13.05;11.75;;;;;;;;;;5020410;28;20437;-84
2023/05/04 05:37:54;;;;;;;14.23;11.88;;;;;;;;;;5011236;28;20413;-84
2023/05/04 05:40:21;;;;;;;15.32;12.15;;;;;;;;;;5017305;28;20484;-84
2023/05/04 05:42:47;;;;;;;12.90;11.70;;;;;;;;;;5032494;28;20424;-83
2023/05/04 05:45:13;;;;;;;14.05;11.70;;;;;;;;;;5036571;28;20396;-84
2023/05/04 05:47:39;;;;;;;13.82;12.05;;;;;;;;;;5036808;28;20400;-83
2023/05/04 05:50:06;;;;;;;13.37;12.00;;;;;;;;;;5020177;28;20404;-83
2023/05/04 05:52:34;;;;;;;13.60;12.20;;;;;;;;;;5035566;28;20412;-83
2023/05/04 05:55:00;;;;;;;14.35;11.75;;;;;;;;;;5019154;28;20432;-84
2023/05/04 05:57:26;;;;;;;12.88;11.63;;;;;;;;;;5019155;28;20408;-84
2023/05/04 05:59:52;;;;;;;13.13;11.65;;;;;;;;;;5035751;28;20416;-83
2023/05/04 06:02:18;;;;;;;13.63;11.65;;;;;;;;;;5019184;28;20408;-84
2023/05/04 06:04:44;;;;;;;12.98;11.63;;;;;;;;;;5019231;28;20420;-83
2023/05/04 06:07:12;;;;;;;15.05;12.13;;;;;;;;;;5018621;28;20412;-84
2023/05/04 06:09:38;;;;;;;13.63;12.15;;;;;;;;;;5015634;28;20431;-84
2023/05/04 06:12:05;;;;;;;13.85;12.07;;;;;;;;;;5016967;28;20412;-85
2023/05/04 06:14:32;;;;;;;13.63;12.00;;;;;;;;;;5019096;28;20446;-84
2023/05/04 06:16:58;;;;;;;14.60;12.02;;;;;;;;;;5018833;28;20497;-84
2023/05/04 06:19:25;;;;;;;14.87;12.10;;;;;;;;;;5034676;28;20463;-83
2023/05/04 06:21:51;;;;;;;13.07;11.60;;;;;;;;;;5018415;28;20492;-83
2023/05/04 06:24:17;;;;;;;13.23;11.57;;;;;;;;;;5016683;28;20434;-87
2023/05/04 06:26:43;;;;;;;13.60;11.52;;;;;;;;;;5017593;28;20416;-87
2023/05/04 06:29:09;;;;;;;13.32;11.20;;;;;;;;;;5030950;28;20413;-86
2023/05/04 06:31:38;;;;;;;12.90;11.60;;;;;;;;;;5006092;28;20428;-86
2023/05/04 06:34:04;;;;;;;13.68;12.05;;;;;;;;;;5032066;28;20436;-85
2023/05/04 06:36:30;;;;;;;13.00;11.00;;;;;;;;;;5030139;28;20429;-85
2023/05/04 06:38:57;;;;;;;12.43;11.13;;;;;;;;;;5004639;28;20444;-86
2023/05/04 06:41:23;;;;;;;13.32;11.60;;;;;;;;;;5017017;28;20425;-85
2023/05/04 06:43:49;;;;;;;12.73;11.43;;;;;;;;;;5006362;28;20429;-85
2023/05/04 06:46:15;;;;;;;13.27;11.25;;;;;;;;;;5017669;28;20433;-85
2023/05/04 06:48:42;;;;;;;13.35;11.50;;;;;;;;;;5014149;28;20435;-85
2023/05/04 06:51:08;;;;;;;12.82;11.20;;;;;;;;;;5014030;28;20437;-85
2023/05/04 06:53:34;;;;;;;13.43;11.35;;;;;;;;;;5022058;28;20429;-84
2023/05/04 06:56:00;;;;;;;13.35;11.10;;;;;;;;;;5010994;28;20410;-84
2023/05/04 06:58:26;;;;;;;12.02;10.73;;;;;;;;;;5019743;28;20413;-84
2023/05/04 07:00:52;;;;;;;14.60;11.07;;;;;;;;;;5005158;28;20425;-83
2023/05/04 07:03:18;;;;;;;12.70;10.77;;;;;;;;;;5025059;28;20417;-83
2023/05/04 07:05:47;;;;;;;12.57;11.27;;;;;;;;;;5025525;28;20420;-83
2023/05/04 07:08:13;;;;;;;13.20;11.43;;;;;;;;;;5003395;28;20433;-84
2023/05/04 07:10:40;;;;;;;12.60;10.85;;;;;;;;;;5001997;28;20472;-83
2023/05/04 07:13:06;;;;;;;13.23;10.97;;;;;;;;;;5002511;28;20428;-83
2023/05/04 07:15:34;;;;;;;12.00;10.82;;;;;;;;;;5046643;28;20417;-83
2023/05/04 07:18:01;;;;;;;12.23;10.93;;;;;;;;;;5015453;28;20409;-83
2023/05/04 07:20:27;;;;;;;11.40;10.30;;;;;;;;;;5015355;28;20416;-83
2023/05/04 07:22:55;;;;;;;11.63;10.43;;;;;;;;;;5030954;28;20543;-83
2023/05/04 07:25:22;;;;;;;12.27;10.95;;;;;;;;;;5015255;28;20421;-83
2023/05/04 07:27:48;;;;;;;13.40;10.57;;;;;;;;;;5031174;28;20448;-83
2023/05/04 07:30:14;;;;;;;11.65;10.55;;;;;;;;;;5013092;28;20422;-84
2023/05/04 07:32:40;;;;;;;11.60;10.50;;;;;;;;;;5012013;28;20428;-84
2023/05/04 07:35:06;;;;;;;12.63;10.60;;;;;;;;;;5030776;28;20433;-84
2023/05/04 07:37:33;;;;;;;13.20;11.13;;;;;;;;;;5029279;28;20444;-88
2023/05/04 07:40:04;;;;;;;11.60;10.50;;;;;;;;;;5032301;28;20457;-83
2023/05/04 07:42:30;;;;;;;11.20;10.10;;;;;;;;;;5019829;28;20421;-82
2023/05/04 07:44:56;;;;;;;13.07;10.17;;;;;;;;;;5019110;28;20504;-83
2023/05/04 07:47:23;;;;;;;12.37;10.60;;;;;;;;;;5014847;28;20422;-83
2023/05/04 07:49:49;;;;;;;11.82;10.60;;;;;;;;;;5024247;28;20417;-83
2023/05/04 07:52:15;;;;;;;11.38;10.07;;;;;;;;;;5035807;28;20409;-83
2023/05/04 07:54:41;;;;;;;11.93;10.10;;;;;;;;;;5034555;28;20486;-83
2023/05/04 07:57:07;;;;;;;16.02;10.20;;;;;;;;;;5035643;28;20492;-82
2023/05/04 07:59:33;;;;;;;11.23;9.70;;;;;;;;;;5035519;28;20566;-83
2023/05/04 08:01:59;;;;;;;11.00;9.90;;;;;;;;;;5035734;28;20398;-83
2023/05/04 08:04:28;;;;;;;10.95;9.85;;;;;;;;;;5018978;28;20501;-83
2023/05/04 08:06:54;;;;;;;11.05;9.52;;;;;;;;;;5019001;28;20458;-82
2023/05/04 08:09:20;;;;;;;10.75;9.35;;;;;;;;;;5035381;28;20444;-83
2023/05/04 08:11:46;;;;;;;10.88;9.70;;;;;;;;;;5019025;28;20418;-83
2023/05/04 08:14:12;;;;;;;10.93;9.40;;;;;;;;;;5017741;28;20440;-83
2023/05/04 08:16:38;;;;;;;10.13;9.02;;;;;;;;;;5034628;28;20416;-82
2023/05/04 08:19:05;;;;;;;11.52;9.30;;;;;;;;;;5022162;28;20420;-82
2023/05/04 08:21:31;;;;;;;11.65;9.07;;;;;;;;;;5022540;28;20492;-82
2023/05/04 08:23:57;;;;;;;10.57;8.88;;;;;;;;;;5039042;28;20420;-82
2023/05/04 08:26:23;;;;;;;10.70;8.52;;;;;;;;;;5035193;28;20413;-82
2023/05/04 08:28:49;;;;;;;9.25;8.35;;;;;;;;;;5035246;28;20484;-82
2023/05/04 08:31:17;;;;;;;8.97;7.97;;;;;;;;;;5035659;28;20440;-82
2023/05/04 08:33:44;;;;;;;9.45;8.10;;;;;;;;;;5035469;28;20430;-81
2023/05/04 08:36:10;;;;;;;9.00;8.10;;;;;;;;;;5035018;28;20437;-82
2023/05/04 08:38:36;;;;;;;10.55;8.00;;;;;;;;;;5034693;28;20418;-82
2023/05/04 08:41:06;;;;;;;9.53;7.57;;;;;;;;;;5016308;28;20423;-81
2023/05/04 08:43:36;;;;;;;12.35;7.88;;;;;;;;;;5033725;28;20421;-82
2023/05/04 08:46:03;;;;;;;10.45;7.70;;;;;;;;;;5018615;28;20414;-82
2023/05/04 08:48:32;;;;;;;9.60;7.82;;;;;;;;;;5034415;28;20492;-82
2023/05/04 08:50:58;;;;;;;10.48;7.60;;;;;;;;;;5033931;28;20439;-82
2023/05/04 08:53:25;;;;;;;9.18;7.55;;;;;;;;;;5034573;28;20409;-82
2023/05/04 08:55:52;;;;;;;9.90;7.65;;;;;;;;;;5018667;28;20435;-82
2023/05/04 08:58:18;;;;;;;9.88;7.32;;;;;;;;;;5034756;28;20398;-82
2023/05/04 09:00:45;;;;;;;9.32;7.10;;;;;;;;;;5018340;28;20402;-83
2023/05/04 09:03:13;;;;;;;8.45;7.25;;;;;;;;;;5018296;28;20413;-82
2023/05/04 09:05:42;;;;;;;9.60;7.57;;;;;;;;;;5035511;28;20401;-81
2023/05/04 09:08:08;;;;;;;8.20;7.22;;;;;;;;;;5034089;28;20401;-82
2023/05/04 09:10:34;;;;;;;9.90;7.38;;;;;;;;;;5034716;28;20405;-81
2023/05/04 09:13:00;;;;;;;7.93;6.87;;;;;;;;;;5035276;28;20188;-82
2023/05/04 09:15:26;;;;;;;10.45;6.90;;;;;;;;;;5034636;28;20432;-82
2023/05/04 09:17:56;;;;;;;8.88;7.47;;;;;;;;;;5017316;28;20426;-82
2023/05/04 09:20:23;;;;;;;8.13;6.80;;;;;;;;;;5034465;28;20179;-82
2023/05/04 09:22:59;;;;;;;9.40;7.10;;;;;;;;;;5034802;28;20502;-82
2023/05/04 09:25:25;;;;;;;12.93;7.03;;;;;;;;;;5033402;28;20449;-82
2023/05/04 09:27:55;;;;;;;8.88;7.60;;;;;;;;;;5017331;28;20448;-81
2023/05/04 09:30:21;;;;;;;8.48;6.93;;;;;;;;;;5033185;28;20424;-82
2023/05/04 09:32:48;;;;;;;10.05;7.18;;;;;;;;;;5032667;28;20429;-82
2023/05/04 09:35:17;;;;;;;13.00;7.50;;;;;;;;;;5016413;28;20442;-82
2023/05/04 09:37:44;;;;;;;9.93;7.03;;;;;;;;;;5033780;28;20437;-82
2023/05/04 09:40:11;;;;;;;10.02;7.32;;;;;;;;;;5016687;28;20421;-80
2023/05/04 09:42:37;;;;;;;10.10;7.40;;;;;;;;;;5036324;28;20408;-82
2023/05/04 09:45:05;;;;;;;9.35;7.40;;;;;;;;;;5044719;28;20467;-83
2023/05/04 09:47:32;;;;;;;9.50;7.40;;;;;;;;;;5043657;28;20413;-82
2023/05/04 09:49:59;;;;;;;9.00;6.80;;;;;;;;;;5053288;28;20404;-82
2023/05/04 09:52:28;;;;;;;7.40;6.70;;;;;;;;;;5053599;28;20488;-83
2023/05/04 09:54:54;;;;;;;8.30;6.68;;;;;;;;;;5053219;28;20523;-82
2023/05/04 09:57:22;;;;;;;10.15;6.78;;;;;;;;;;5043507;28;20405;-82
2023/05/04 09:59:48;;;;;;;11.18;6.88;;;;;;;;;;5016601;28;20417;-82
2023/05/04 10:02:14;;;;;;;9.20;7.00;;;;;;;;;;5031791;28;20421;-82
2023/05/04 10:04:42;;;;;;;9.00;6.70;;;;;;;;;;5016062;28;20567;-82
2023/05/04 10:07:08;;;;;;;9.70;6.60;;;;;;;;;;5030533;28;20421;-82
2023/05/04 10:09:38;;;;;;;8.13;6.60;;;;;;;;;;5029356;28;20504;-82
2023/05/04 10:12:04;;;;;;;8.48;6.68;;;;;;;;;;5028710;28;20571;-82
2023/05/04 10:14:34;;;;;;;9.35;7.18;;;;;;;;;;5028275;28;20440;-82
2023/05/04 10:17:06;;;;;;;9.43;6.68;;;;;;;;;;5028045;28;20426;-82
2023/05/04 10:19:39;;;;;;;8.07;6.28;;;;;;;;;;5030541;28;20507;-82
2023/05/04 10:22:08;;;;;;;11.10;6.55;;;;;;;;;;5027858;28;20414;-82
2023/05/04 10:24:40;;;;;;;9.77;6.55;;;;;;;;;;5028834;28;20417;-82
2023/05/04 10:27:17;;;;;;;8.27;6.38;;;;;;;;;;5027693;28;20542;-82
2023/05/04 10:29:47;;;;;;;12.18;7.53;;;;;;;;;;5032822;28;20445;-83
2023/05/04 10:32:20;;;;;;;8.55;6.63;;;;;;;;;;5033234;28;20428;-83
2023/05/04 10:34:47;;;;;;;9.48;6.47;;;;;;;;;;5033228;28;20425;-84
2023/05/04 10:37:21;;;;;;;12.00;8.00;;;;;;;;;;5033057;28;20438;-82
2023/05/04 10:39:53;;;;;;;10.82;7.43;;;;;;;;;;5032897;28;20409;-83
2023/05/04 10:42:20;;;;;;;8.20;6.22;;;;;;;;;;5034173;28;20180;-82
2023/05/04 10:44:53;;;;;;;8.13;6.30;;;;;;;;;;5032607;28;20413;-82
2023/05/04 10:47:36;;;;;;;7.70;5.93;;;;;;;;;;5016449;28;20414;-83
2023/05/04 10:50:06;;;;;;;9.88;5.80;;;;;;;;;;5032215;28;20417;-82
2023/05/04 10:52:44;;;;;;;9.38;6.10;;;;;;;;;;5032264;28;20424;-83
2023/05/04 10:55:10;;;;;;;8.65;6.25;;;;;;;;;;5032541;28;20432;-83
2023/05/04 10:57:50;;;;;;;7.10;6.00;;;;;;;;;;5032544;28;20409;-82
2023/05/04 11:00:17;;;;;;;8.52;5.97;;;;;;;;;;5032137;28;20413;-82
2023/05/04 11:02:45;;;;;;;7.68;6.25;;;;;;;;;;5033041;28;20180;-82
2023/05/04 11:05:16;;;;;;;8.88;6.35;;;;;;;;;;5032705;28;20172;-83
2023/05/04 11:07:42;;;;;;;9.20;5.85;;;;;;;;;;5032136;28;20427;-83
2023/05/04 11:10:19;;;;;;;9.23;6.60;;;;;;;;;;5032715;28;20419;-83
2023/05/04 11:12:45;;;;;;;8.07;5.85;;;;;;;;;;5031743;28;20417;-83
2023/05/04 11:15:12;;;;;;;7.85;6.28;;;;;;;;;;5032447;28;20216;-83
2023/05/04 11:17:45;;;;;;;9.45;6.55;;;;;;;;;;5032748;28;20168;-82
2023/05/04 11:20:11;;;;;;;13.60;7.28;;;;;;;;;;5032690;28;20172;-83
2023/05/04 11:22:37;;;;;;;7.50;6.63;;;;;;;;;;5031652;28;20243;-83
2023/05/04 11:25:03;;;;;;;7.68;6.15;;;;;;;;;;5029951;28;20182;-82
2023/05/04 11:27:29;;;;;;;8.55;5.90;;;;;;;;;;5031560;28;20204;-83
2023/05/04 11:29:59;;;;;;;9.00;7.05;;;;;;;;;;5031514;28;20417;-83
2023/05/04 11:32:38;;;;;;;7.72;6.93;;;;;;;;;;5032694;28;20172;-83
2023/05/04 11:35:05;;;;;;;10.00;7.13;;;;;;;;;;5032174;28;20433;-83
2023/05/04 11:37:38;;;;;;;8.98;7.68;;;;;;;;;;5032177;28;20444;-83
2023/05/04 11:40:08;;;;;;;8.18;6.47;;;;;;;;;;5031611;28;20405;-83
2023/05/04 11:42:34;;;;;;;9.88;7.55;;;;;;;;;;5031153;28;20543;-83
2023/05/04 11:45:00;;;;;;;8.45;7.53;;;;;;;;;;5015656;28;20402;-83
2023/05/04 11:47:26;;;;;;;7.53;6.60;;;;;;;;;;5015321;28;20410;-82
2023/05/04 11:49:52;;;;;;;9.47;6.70;;;;;;;;;;5015268;28;20417;-82
2023/05/04 11:52:23;;;;;;;11.35;7.60;;;;;;;;;;5015798;28;20188;-83
2023/05/04 11:54:58;;;;;;;9.93;6.95;;;;;;;;;;5032161;28;20200;-84
2023/05/04 11:57:24;;;;;;;9.32;7.18;;;;;;;;;;5032231;28;20180;-84
2023/05/04 11:59:50;;;;;;;7.75;6.80;;;;;;;;;;5032433;28;20208;-83
2023/05/04 12:02:17;;;;;;;8.68;7.75;;;;;;;;;;5016088;28;20177;-83
2023/05/04 12:04:43;;;;;;;8.70;7.13;;;;;;;;;;5016302;28;20211;-83
2023/05/04 12:07:09;;;;;;;12.20;6.78;;;;;;;;;;5032061;28;20189;-82
2023/05/04 12:09:48;;;;;;;11.30;7.70;;;;;;;;;;5015908;28;20184;-82
2023/05/04 12:12:15;;;;;;;8.30;7.07;;;;;;;;;;5032498;28;20180;-83
2023/05/04 12:14:48;;;;;;;10.82;7.20;;;;;;;;;;5015884;28;20208;-82
2023/05/04 12:17:14;;;;;;;9.43;6.93;;;;;;;;;;5015606;28;20204;-82
2023/05/04 12:19:51;;;;;;;8.13;6.72;;;;;;;;;;5015923;28;20184;-82
2023/05/04 12:22:17;;;;;;;9.02;7.50;;;;;;;;;;5032266;28;20263;-82
2023/05/04 12:24:43;;;;;;;10.50;7.25;;;;;;;;;;5015718;28;20168;-83
2023/05/04 12:27:16;;;;;;;9.60;7.25;;;;;;;;;;5019109;28;20181;-82
2023/05/04 12:29:42;;;;;;;10.40;6.45;;;;;;;;;;5035817;28;20179;-83
2023/05/04 12:32:08;;;;;;;7.95;6.70;;;;;;;;;;5019626;28;20189;-83
2023/05/04 12:34:34;;;;;;;8.15;6.72;;;;;;;;;;5019489;28;20215;-83
2023/05/04 12:37:01;;;;;;;8.10;6.65;;;;;;;;;;5019338;28;20235;-83
2023/05/04 12:39:28;;;;;;;8.40;6.80;;;;;;;;;;5035624;28;20231;-83
2023/05/04 12:41:54;;;;;;;10.75;7.13;;;;;;;;;;5035739;28;20180;-83
2023/05/04 12:44:23;;;;;;;11.52;7.72;;;;;;;;;;5035321;28;20173;-82
2023/05/04 12:46:49;;;;;;;9.80;7.38;;;;;;;;;;5019274;28;20184;-82
2023/05/04 12:49:15;;;;;;;9.25;8.13;;;;;;;;;;5015934;28;20498;-82
2023/05/04 12:51:41;;;;;;;10.07;7.83;;;;;;;;;;5013420;28;20429;-82
2023/05/04 12:54:07;;;;;;;9.87;8.30;;;;;;;;;;5018086;28;20532;-83
2023/05/04 12:56:33;;;;;;;11.65;8.13;;;;;;;;;;5002697;28;20224;-83
2023/05/04 12:58:59;;;;;;;11.45;8.50;;;;;;;;;;5034777;28;20509;-83
2023/05/04 13:01:26;;;;;;;8.63;7.73;;;;;;;;;;5009173;28;20510;-83
2023/05/04 13:03:52;;;;;;;8.70;7.28;;;;;;;;;;5013754;28;20189;-83
2023/05/04 13:06:18;;;;;;;10.93;7.30;;;;;;;;;;5005365;28;20526;-83
2023/05/04 13:08:46;;;;;;;9.63;7.82;;;;;;;;;;5002582;28;20454;-83
2023/05/04 13:11:12;;;;;;;11.10;8.38;;;;;;;;;;5032231;28;20429;-83
2023/05/04 13:13:38;;;;;;;10.98;8.10;;;;;;;;;;5034232;28;20421;-83
2023/05/04 13:16:04;;;;;;;10.38;8.05;;;;;;;;;;5017341;28;20454;-83
2023/05/04 13:18:31;;;;;;;9.97;7.90;;;;;;;;;;5033898;28;20398;-83
2023/05/04 13:20:57;;;;;;;9.43;8.20;;;;;;;;;;5034003;28;20409;-82
2023/05/04 13:23:23;;;;;;;10.83;8.20;;;;;;;;;;5033921;28;20416;-83
2023/05/04 13:25:49;;;;;;;9.02;8.13;;;;;;;;;;5034697;28;20543;-83
2023/05/04 13:28:16;;;;;;;9.23;7.65;;;;;;;;;;5016041;28;20539;-83
2023/05/04 13:30:42;;;;;;;11.15;7.85;;;;;;;;;;5017607;28;20433;-83
2023/05/04 13:33:08;;;;;;;8.80;7.35;;;;;;;;;;5016952;28;20512;-82
2023/05/04 13:35:34;;;;;;;12.45;8.23;;;;;;;;;;5033575;28;20437;-83
2023/05/04 13:38:00;;;;;;;12.20;7.88;;;;;;;;;;5033464;28;20243;-82
2023/05/04 13:40:26;;;;;;;9.90;8.90;;;;;;;;;;5032808;28;20177;-83
2023/05/04 13:42:52;;;;;;;11.35;9.35;;;;;;;;;;5017622;28;20418;-83
2023/05/04 13:45:18;;;;;;;13.45;9.68;;;;;;;;;;5017262;28;20409;-83
2023/05/04 13:47:45;;;;;;;11.43;9.60;;;;;;;;;;5014075;28;20442;-83
2023/05/04 13:50:11;;;;;;;11.07;8.75;;;;;;;;;;5026393;28;20440;-83
2023/05/04 13:52:37;;;;;;;10.57;8.07;;;;;;;;;;5033714;28;20184;-83
2023/05/04 13:55:06;;;;;;;10.82;9.15;;;;;;;;;;5033674;28;20235;-83
2023/05/04 13:57:32;;;;;;;10.07;8.95;;;;;;;;;;5018339;28;20268;-83
2023/05/04 13:59:58;;;;;;;13.18;9.63;;;;;;;;;;5018893;28;20184;-83
2023/05/04 14:02:25;;;;;;;13.23;8.82;;;;;;;;;;5034807;28;20260;-84
2023/05/04 14:04:51;;;;;;;11.57;10.10;;;;;;;;;;5034462;28;20267;-84
2023/05/04 14:07:17;;;;;;;14.77;9.90;;;;;;;;;;5017719;28;20184;-83
2023/05/04 14:09:44;;;;;;;10.50;9.40;;;;;;;;;;5017613;28;20185;-83
2023/05/04 14:12:10;;;;;;;11.95;10.75;;;;;;;;;;5017331;28;20425;-83
2023/05/04 14:14:36;;;;;;;15.52;12.15;;;;;;;;;;5016565;28;20441;-83
2023/05/04 14:17:02;;;;;;;14.53;11.83;;;;;;;;;;5016751;28;20417;-83
2023/05/04 14:19:28;;;;;;;15.82;11.77;;;;;;;;;;5016878;28;20492;-83
2023/05/04 14:21:54;;;;;;;15.75;12.23;;;;;;;;;;5016619;28;20445;-84
2023/05/04 14:24:20;;;;;;;16.58;12.40;;;;;;;;;;5016450;28;20417;-83